Time;durP1;ratioP1;P1;durP2;ratioP2;P2;SDS_P1;SDS_P2;PMS_P1;PMS_P2;Temp;Humidity;BMP_temperature;BMP_pressure;BME280_temperature;BME280_humidity;BME280_pressure;Samples;Min_cycle;Max_cycle;Signal;HPM_P1;HPM_P2
2021/11/30 00:02:18;;;;;;;6.80;2.05;;;;;;;4.51;85.34;101129.09;5110557;28;20028;-72
2021/11/30 00:04:44;;;;;;;6.65;1.90;;;;;;;4.48;86.57;101117.84;5110760;28;20027;-72
2021/11/30 00:07:09;;;;;;;7.47;2.22;;;;;;;4.47;87.67;101103.97;5110241;28;20392;-72
2021/11/30 00:12:05;;;;;;;11.07;2.38;;;;;;;4.35;90.37;101099.72;5108550;28;20122;-72
2021/11/30 00:14:30;;;;;;;10.35;2.97;;;;;;;4.39;91.09;101091.88;5110150;28;20023;-72
2021/11/30 00:16:57;;;;;;;8.38;2.55;;;;;;;4.41;92.25;101087.56;5109411;28;20039;-72
2021/11/30 00:19:23;;;;;;;5.35;2.20;;;;;;;4.45;93.78;101077.16;5110528;28;20024;-72
2021/11/30 00:21:49;;;;;;;14.98;2.50;;;;;;;4.43;94.70;101081.50;5109581;28;20093;-72
2021/11/30 00:24:14;;;;;;;10.13;2.40;;;;;;;4.43;96.38;101067.63;5110121;28;20040;-73
2021/11/30 00:26:39;;;;;;;6.95;2.25;;;;;;;4.42;97.56;101064.19;5108838;28;20103;-72
2021/11/30 00:29:05;;;;;;;6.28;2.25;;;;;;;4.42;98.88;101058.97;5108232;28;20078;-73
2021/11/30 00:31:30;;;;;;;6.68;2.20;;;;;;;4.41;99.99;101046.00;5109073;28;20060;-72
2021/11/30 00:33:55;;;;;;;6.10;2.45;;;;;;;4.39;100.00;101059.00;5109723;28;20024;-72
2021/11/30 00:36:22;;;;;;;7.78;2.30;;;;;;;4.40;100.00;101047.72;5110265;28;20035;-72
2021/11/30 00:38:47;;;;;;;4.95;2.40;;;;;;;4.41;100.00;101028.69;5108237;28;20023;-72
2021/11/30 00:41:12;;;;;;;9.63;2.50;;;;;;;4.43;100.00;101029.56;5109845;28;20328;-72
2021/11/30 00:43:38;;;;;;;12.73;3.05;;;;;;;4.47;100.00;101027.81;5110344;28;20023;-72
2021/11/30 00:46:17;;;;;;;7.45;2.70;;;;;;;4.47;100.00;101027.81;5107772;28;20032;-73
2021/11/30 00:48:42;;;;;;;8.32;3.05;;;;;;;4.48;100.00;101027.78;5108992;28;20031;-73
2021/11/30 00:51:20;;;;;;;7.47;3.03;;;;;;;4.57;100.00;101021.69;5108542;28;20024;-73
2021/11/30 00:53:47;;;;;;;12.38;3.30;;;;;;;4.58;100.00;101018.22;5109151;28;20269;-73
2021/11/30 00:56:13;;;;;;;13.07;3.50;;;;;;;4.62;100.00;101019.91;5109561;28;20024;-72
2021/11/30 00:58:39;;;;;;;12.00;4.00;;;;;;;4.67;100.00;101012.09;5108321;28;20065;-73
2021/11/30 01:01:05;;;;;;;11.02;3.05;;;;;;;4.74;100.00;101011.22;5107315;28;20034;-72
2021/11/30 01:03:31;;;;;;;10.98;3.63;;;;;;;4.84;100.00;100996.41;5107007;28;20031;-73
2021/11/30 01:05:56;;;;;;;8.82;3.58;;;;;;;4.89;100.00;100998.97;5107861;28;20024;-73
2021/11/30 01:08:22;;;;;;;12.27;3.72;;;;;;;4.91;100.00;100981.63;5108925;28;20024;-73
2021/11/30 01:10:48;;;;;;;8.82;3.22;;;;;;;4.96;100.00;100983.34;5109790;28;20080;-73
2021/11/30 01:13:14;;;;;;;11.13;3.17;;;;;;;5.01;100.00;100988.47;5109450;28;20032;-73
2021/11/30 01:15:40;;;;;;;10.20;3.53;;;;;;;5.04;100.00;100982.44;5110655;28;20018;-72
2021/11/30 01:18:05;;;;;;;13.27;3.90;;;;;;;5.05;100.00;100989.31;5109233;28;20477;-72
2021/11/30 01:20:30;;;;;;;11.00;4.18;;;;;;;5.09;100.00;100983.25;5110286;28;20487;-73
2021/11/30 01:22:56;;;;;;;12.45;4.38;;;;;;;5.12;100.00;100975.41;5109379;28;20030;-73
2021/11/30 01:25:23;;;;;;;10.35;5.13;;;;;;;5.12;100.00;100978.00;5109855;28;20020;-73
2021/11/30 01:27:48;;;;;;;11.88;5.47;;;;;;;5.17;100.00;100973.63;5107745;28;20460;-73
2021/11/30 01:30:14;;;;;;;7.35;4.65;;;;;;;5.22;100.00;100974.47;5109878;28;20038;-73
2021/11/30 01:32:44;;;;;;;13.13;5.68;;;;;;;5.24;100.00;100974.44;5110179;28;20030;-73
2021/11/30 01:35:11;;;;;;;8.63;4.65;;;;;;;5.33;100.00;100974.34;5109740;28;20366;-73
2021/11/30 01:37:38;;;;;;;7.18;4.13;;;;;;;5.39;100.00;100978.66;5109705;28;20496;-73
2021/11/30 01:40:05;;;;;;;9.77;4.63;;;;;;;5.45;100.00;100971.66;5110156;28;20037;-73
2021/11/30 01:42:32;;;;;;;10.57;4.10;;;;;;;5.47;100.00;100971.63;5096438;28;20054;-73
2021/11/30 01:45:05;;;;;;;7.78;3.85;;;;;;;5.55;100.00;100976.78;5109390;28;20038;-73
2021/11/30 01:49:57;;;;;;;7.55;3.08;;;;;;;5.69;100.00;100966.22;5109549;28;20558;-73
2021/11/30 01:52:23;;;;;;;5.63;2.75;;;;;;;5.78;100.00;100950.50;5110392;28;20016;-72
2021/11/30 01:54:50;;;;;;;8.27;3.00;;;;;;;5.82;100.00;100947.84;5109085;28;20482;-73
2021/11/30 01:57:19;;;;;;;7.18;3.28;;;;;;;5.94;100.00;100935.56;5108791;28;20636;-73
2021/11/30 01:59:45;;;;;;;6.85;3.15;;;;;;;6.00;100.00;100938.13;5109664;28;20100;-73
2021/11/30 02:02:11;;;;;;;7.80;3.10;;;;;;;6.06;100.00;100947.59;5109161;28;20468;-73
2021/11/30 02:04:37;;;;;;;7.47;3.10;;;;;;;6.11;100.00;100938.84;5109939;28;20019;-73
2021/11/30 02:07:03;;;;;;;7.75;3.00;;;;;;;6.18;100.00;100930.94;5106849;28;20376;-72
2021/11/30 02:09:29;;;;;;;9.07;3.70;;;;;;;6.26;100.00;100942.13;5109331;28;20488;-73
2021/11/30 02:11:55;;;;;;;9.00;3.90;;;;;;;6.27;100.00;100931.69;5108624;28;20015;-72
2021/11/30 02:14:21;;;;;;;7.18;3.58;;;;;;;6.29;100.00;100926.47;5109700;28;20028;-72
2021/11/30 02:16:47;;;;;;;10.93;4.07;;;;;;;6.29;100.00;100927.31;5108865;28;20015;-72
2021/11/30 02:19:13;;;;;;;8.20;3.60;;;;;;;6.32;100.00;100933.38;5108766;28;20407;-73
2021/11/30 02:21:41;;;;;;;14.18;4.00;;;;;;;6.35;100.00;100930.72;5109020;28;20076;-73
2021/11/30 02:24:08;;;;;;;8.10;3.13;;;;;;;6.37;100.00;100913.34;5109000;28;20098;-73
2021/11/30 02:26:35;;;;;;;9.70;3.47;;;;;;;6.38;100.00;100925.50;5108973;28;20020;-73
2021/11/30 02:29:02;;;;;;;8.88;3.60;;;;;;;6.41;100.00;100915.88;5108215;28;20178;-73
2021/11/30 02:31:30;;;;;;;9.07;3.40;;;;;;;6.44;100.00;100912.38;5109165;28;20608;-73
2021/11/30 02:33:56;;;;;;;11.05;3.70;;;;;;;6.46;100.00;100906.25;5108289;28;20030;-73
2021/11/30 02:36:28;;;;;;;8.90;2.97;;;;;;;6.49;100.00;100899.25;5109052;28;20016;-72
2021/11/30 02:38:54;;;;;;;7.68;3.22;;;;;;;6.51;100.00;100915.75;5107670;28;20046;-72
2021/11/30 02:41:20;;;;;;;8.73;3.53;;;;;;;6.52;100.00;100902.69;5108759;28;20064;-73
2021/11/30 02:43:46;;;;;;;9.90;3.50;;;;;;;6.54;100.00;100895.72;5108617;28;20085;-74
2021/11/30 02:46:38;;;;;;;11.57;4.13;;;;;;;6.56;100.00;100880.03;5108484;28;20423;-72
2021/11/30 02:49:07;;;;;;;12.45;3.35;;;;;;;6.56;100.00;100890.47;5106966;28;20377;-73
2021/11/30 02:51:34;;;;;;;11.77;3.30;;;;;;;6.56;100.00;100895.69;5108945;28;20106;-73
2021/11/30 02:54:03;;;;;;;11.00;3.38;;;;;;;6.59;100.00;100888.69;5108445;28;20080;-73
2021/11/30 02:56:29;;;;;;;13.90;3.88;;;;;;;6.61;100.00;100878.22;5108472;28;20567;-72
2021/11/30 02:58:55;;;;;;;13.65;3.65;;;;;;;6.61;100.00;100881.72;5107883;28;20031;-72
2021/11/30 03:01:22;;;;;;;10.77;3.03;;;;;;;6.66;100.00;100883.38;5108540;28;20529;-72
2021/11/30 03:03:47;;;;;;;11.35;2.83;;;;;;;6.68;100.00;100876.41;5108369;28;20056;-73
2021/11/30 03:06:13;;;;;;;13.38;3.30;;;;;;;6.66;100.00;100871.22;5108237;28;20020;-72
2021/11/30 03:08:39;;;;;;;9.60;2.97;;;;;;;6.66;100.00;100867.72;5107398;28;20525;-72
2021/11/30 03:11:06;;;;;;;11.73;2.83;;;;;;;6.69;100.00;100872.91;5107240;28;20028;-72
2021/11/30 03:13:32;;;;;;;10.95;2.75;;;;;;;6.70;100.00;100859.84;5106970;28;20039;-73
2021/11/30 03:15:58;;;;;;;7.55;2.90;;;;;;;6.73;100.00;100864.13;5106840;28;20032;-72
2021/11/30 03:18:23;;;;;;;10.95;2.90;;;;;;;6.73;100.00;100856.31;5108747;28;20019;-72
2021/11/30 03:20:49;;;;;;;7.05;2.53;;;;;;;6.77;100.00;100851.03;5110819;28;20020;-72
2021/11/30 03:23:15;;;;;;;16.15;2.63;;;;;;;6.81;100.00;100849.25;5111313;28;20026;-72
2021/11/30 03:25:42;;;;;;;6.47;2.17;;;;;;;6.88;100.00;100853.44;5110476;28;20027;-73
2021/11/30 03:28:08;;;;;;;10.73;2.25;;;;;;;6.90;100.00;100846.47;5111929;28;20027;-73
2021/11/30 03:30:36;;;;;;;8.77;2.50;;;;;;;6.90;100.00;100851.69;5112288;28;20054;-73
2021/11/30 03:35:45;;;;;;;11.65;3.03;;;;;;;6.93;100.00;100832.50;5099023;28;20038;-73
2021/11/30 03:38:11;;;;;;;10.38;2.60;;;;;;;6.95;100.00;100835.97;5111646;28;20115;-74
2021/11/30 03:40:36;;;;;;;12.45;3.08;;;;;;;6.94;100.00;100832.47;5112155;28;20077;-72
2021/11/30 03:43:01;;;;;;;13.20;4.47;;;;;;;6.97;100.00;100825.50;5111298;27;20023;-72
2021/11/30 03:45:27;;;;;;;12.38;3.85;;;;;;;6.95;100.00;100838.56;5111811;28;20035;-72
2021/11/30 03:47:52;;;;;;;10.88;3.85;;;;;;;6.97;100.00;100835.91;5111148;28;20024;-74
2021/11/30 03:50:17;;;;;;;10.43;4.50;;;;;;;6.98;100.00;100827.22;5111645;28;20047;-72
2021/11/30 03:52:43;;;;;;;14.18;4.45;;;;;;;7.02;100.00;100824.53;5111580;28;20030;-71
2021/11/30 03:55:08;;;;;;;9.63;3.90;;;;;;;7.03;100.00;100836.69;5111539;28;20037;-72
2021/11/30 03:57:33;;;;;;;10.45;3.92;;;;;;;7.03;100.00;100835.81;5110750;28;20107;-72
2021/11/30 03:59:59;;;;;;;18.88;5.00;;;;;;;7.07;100.00;100832.25;5111478;28;20047;-72
2021/11/30 04:02:24;;;;;;;18.00;6.90;;;;;;;7.06;100.00;100831.41;5111300;28;20420;-73
2021/11/30 04:04:50;;;;;;;14.40;5.15;;;;;;;7.11;100.00;100826.94;5111328;28;20059;-72
2021/11/30 04:07:16;;;;;;;14.05;5.68;;;;;;;7.11;100.00;100824.34;5110832;28;20051;-72
2021/11/30 04:09:41;;;;;;;12.07;4.80;;;;;;;7.15;100.00;100830.38;5111256;28;20656;-72
2021/11/30 04:12:08;;;;;;;15.48;5.43;;;;;;;7.15;100.00;100822.53;5111035;28;20026;-72
2021/11/30 04:14:33;;;;;;;15.90;5.97;;;;;;;7.20;100.00;100825.06;5110792;28;20019;-72
2021/11/30 04:16:59;;;;;;;12.98;4.80;;;;;;;7.20;100.00;100818.09;5110842;28;20358;-72
2021/11/30 04:19:24;;;;;;;14.73;5.18;;;;;;;7.24;100.00;100819.78;5111433;28;20020;-72
2021/11/30 04:21:50;;;;;;;13.60;4.85;;;;;;;7.24;100.00;100819.78;5110969;28;20683;-73
2021/11/30 04:24:15;;;;;;;16.17;5.72;;;;;;;7.25;100.00;100818.00;5109226;28;20034;-72
2021/11/30 04:26:40;;;;;;;14.57;5.65;;;;;;;7.25;100.00;100818.84;5107760;28;20031;-73
2021/11/30 04:29:06;;;;;;;19.05;6.47;;;;;;;7.27;100.00;100806.66;5107747;28;20039;-73
2021/11/30 04:31:31;;;;;;;13.80;5.53;;;;;;;7.32;100.00;100810.91;5109637;28;20031;-73
2021/11/30 04:33:57;;;;;;;16.33;6.03;;;;;;;7.32;100.00;100806.56;5109825;28;20080;-72
2021/11/30 04:36:23;;;;;;;19.63;6.07;;;;;;;7.35;100.00;100797.81;5109045;28;20023;-72
2021/11/30 04:38:49;;;;;;;12.50;5.13;;;;;;;7.37;100.00;100812.56;5109172;28;20358;-73
2021/11/30 04:41:14;;;;;;;15.35;4.88;;;;;;;7.40;100.00;100807.25;5099690;28;20031;-72
2021/11/30 04:43:39;;;;;;;12.68;4.82;;;;;;;7.39;100.00;100800.34;5110248;28;20039;-73
2021/11/30 04:48:36;;;;;;;18.73;5.15;;;;;;;7.45;100.00;100794.13;5110353;28;20043;-73
2021/11/30 04:51:03;;;;;;;15.65;4.95;;;;;;;7.46;100.00;100793.25;5108707;28;20023;-72
2021/11/30 04:53:31;;;;;;;17.52;5.53;;;;;;;7.46;100.00;100785.41;5110495;28;20386;-72
2021/11/30 04:55:56;;;;;;;14.68;5.13;;;;;;;7.50;100.00;100789.66;5110305;28;20047;-73
2021/11/30 04:58:22;;;;;;;15.63;5.55;;;;;;;7.48;100.00;100781.03;5108917;28;20049;-73
2021/11/30 05:00:47;;;;;;;19.73;5.80;;;;;;;7.51;100.00;100774.88;5110171;28;20468;-72
2021/11/30 05:03:13;;;;;;;23.10;5.18;;;;;;;7.47;100.00;100779.31;5110089;28;20844;-72
2021/11/30 05:05:39;;;;;;;14.75;5.55;;;;;;;7.55;100.00;100780.00;5110918;28;20024;-73
2021/11/30 05:08:04;;;;;;;16.50;5.18;;;;;;;7.51;100.00;100783.56;5109553;28;20020;-72
2021/11/30 05:10:30;;;;;;;16.95;5.22;;;;;;;7.55;100.00;100784.34;5108868;28;20076;-72
2021/11/30 05:12:55;;;;;;;16.98;5.38;;;;;;;7.53;100.00;100781.78;5109582;28;20019;-72
2021/11/30 05:15:21;;;;;;;22.42;7.07;;;;;;;7.54;100.00;100793.06;5110302;28;20060;-74
2021/11/30 05:17:46;;;;;;;19.48;5.90;;;;;;;7.54;100.00;100780.91;5109311;28;20024;-73
2021/11/30 05:20:13;;;;;;;19.67;5.43;;;;;;;7.59;100.00;100783.38;5109670;28;20043;-72
2021/11/30 05:22:39;;;;;;;27.50;6.35;;;;;;;7.57;100.00;100785.19;5109832;28;20313;-73
2021/11/30 05:25:06;;;;;;;18.30;6.22;;;;;;;7.59;100.00;100788.59;5109131;28;20145;-73
2021/11/30 05:27:38;;;;;;;18.35;5.47;;;;;;;7.59;100.00;100789.47;5109474;28;20136;-72
2021/11/30 05:30:13;;;;;;;18.85;5.53;;;;;;;7.65;100.00;100785.00;5109163;27;20026;-72
2021/11/30 05:32:42;;;;;;;19.17;5.85;;;;;;;7.65;100.00;100790.25;5109603;28;20085;-72
2021/11/30 05:35:09;;;;;;;19.00;5.53;;;;;;;7.68;100.00;100784.97;5109410;27;20023;-73
2021/11/30 05:37:34;;;;;;;21.90;6.10;;;;;;;7.67;100.00;100781.47;5108591;28;20031;-72
2021/11/30 05:39:59;;;;;;;23.55;5.90;;;;;;;7.72;100.00;100784.00;5109466;28;20421;-72
2021/11/30 05:42:25;;;;;;;17.83;6.53;;;;;;;7.72;100.00;100784.00;5106525;28;20024;-73
2021/11/30 05:44:51;;;;;;;17.33;6.03;;;;;;;7.70;100.00;100786.66;5108557;28;20023;-74
2021/11/30 05:47:16;;;;;;;18.05;5.20;;;;;;;7.72;100.00;100802.28;5108301;28;20727;-73
2021/11/30 05:49:42;;;;;;;25.08;6.25;;;;;;;7.71;100.00;100788.34;5109484;28;20107;-72
2021/11/30 05:52:07;;;;;;;20.95;6.10;;;;;;;7.68;100.00;100793.66;5106976;28;20106;-73
2021/11/30 05:54:32;;;;;;;20.05;5.95;;;;;;;7.71;100.00;100787.50;5102278;27;20028;-74
2021/11/30 05:56:58;;;;;;;30.38;6.60;;;;;;;7.69;100.00;100787.53;5090538;28;20319;-74
2021/11/30 05:59:25;;;;;;;19.17;6.10;;;;;;;7.72;100.00;100791.84;5092964;28;20061;-74
2021/11/30 06:01:51;;;;;;;20.63;5.93;;;;;;;7.73;100.00;100794.41;5092755;28;20051;-73
2021/11/30 06:04:16;;;;;;;20.48;5.53;;;;;;;7.75;100.00;100800.47;5091913;28;20389;-73
2021/11/30 06:06:41;;;;;;;26.50;5.85;;;;;;;7.76;100.00;100798.69;5097849;28;20067;-73
2021/11/30 06:09:09;;;;;;;19.88;5.70;;;;;;;7.79;100.00;100789.94;5105469;28;20028;-74
2021/11/30 06:11:34;;;;;;;27.38;5.00;;;;;;;7.80;100.00;100791.66;5102542;28;20023;-74
2021/11/30 06:14:01;;;;;;;17.40;4.78;;;;;;;7.82;100.00;100789.88;5107233;28;20031;-74
2021/11/30 06:16:26;;;;;;;20.17;5.65;;;;;;;7.88;100.00;100790.59;5107299;28;20028;-74
2021/11/30 06:18:52;;;;;;;18.92;4.90;;;;;;;7.90;100.00;100791.41;5106548;28;20031;-72
2021/11/30 06:21:17;;;;;;;20.50;5.10;;;;;;;7.94;100.00;100788.72;5108064;28;20488;-74
2021/11/30 06:23:43;;;;;;;21.52;4.70;;;;;;;7.96;100.00;100784.34;5108100;28;20042;-76
2021/11/30 06:26:10;;;;;;;18.48;4.43;;;;;;;7.99;100.00;100782.50;5105230;28;20526;-73
2021/11/30 06:28:36;;;;;;;27.33;4.82;;;;;;;8.02;100.00;100785.03;5104575;28;20115;-74
2021/11/30 06:31:02;;;;;;;22.10;4.22;;;;;;;8.01;100.00;100780.75;5107843;28;20047;-73
2021/11/30 06:33:28;;;;;;;15.90;3.83;;;;;;;8.04;100.00;100798.09;5107102;28;20434;-74
2021/11/30 06:35:53;;;;;;;14.07;4.47;;;;;;;8.09;100.00;100793.63;5107179;28;20019;-73
2021/11/30 06:38:18;;;;;;;18.67;4.20;;;;;;;8.10;100.00;100786.63;5106816;28;20107;-72
2021/11/30 06:40:44;;;;;;;18.13;4.57;;;;;;;8.12;100.00;100788.31;5107917;28;20081;-73
2021/11/30 06:43:09;;;;;;;23.38;4.47;;;;;;;8.15;100.00;100803.03;5103444;28;20062;-73
2021/11/30 06:45:35;;;;;;;11.88;3.92;;;;;;;8.18;100.00;100803.00;5107171;28;20396;-73
2021/11/30 06:48:00;;;;;;;18.73;3.92;;;;;;;8.23;100.00;100795.91;5107540;28;20539;-74
2021/11/30 06:50:26;;;;;;;19.35;4.55;;;;;;;8.28;100.00;100801.03;5108450;28;20024;-74
2021/11/30 06:52:51;;;;;;;20.63;4.43;;;;;;;8.31;100.00;100793.97;5107388;28;20024;-73
2021/11/30 06:55:17;;;;;;;28.70;4.03;;;;;;;8.31;100.00;100806.16;5111578;28;20046;-71
2021/11/30 06:57:42;;;;;;;17.23;3.85;;;;;;;8.33;100.00;100807.00;5110499;28;20055;-72
2021/11/30 07:00:09;;;;;;;20.92;3.80;;;;;;;8.34;100.00;100814.78;5101708;28;20333;-71
2021/11/30 07:02:36;;;;;;;12.93;3.67;;;;;;;8.32;100.00;100807.88;5104108;28;20077;-72
2021/11/30 07:05:15;;;;;;;18.25;3.70;;;;;;;8.32;100.00;100805.25;5106503;28;20055;-73
2021/11/30 07:10:46;;;;;;;15.65;3.83;;;;;;;8.33;100.00;100796.53;5103177;28;20345;-74
2021/11/30 07:13:28;;;;;;;16.15;4.03;;;;;;;8.35;100.00;100803.44;5103364;28;20108;-75
2021/11/30 07:16:03;;;;;;;16.33;3.28;;;;;;;8.34;100.00;100804.34;5103237;28;20103;-76
2021/11/30 07:18:30;;;;;;;12.25;3.35;;;;;;;8.35;100.00;100797.38;5110982;28;20032;-76
2021/11/30 07:20:57;;;;;;;12.50;3.20;;;;;;;8.37;100.00;100806.00;5111331;28;20031;-75
2021/11/30 07:23:42;;;;;;;12.63;3.67;;;;;;;8.38;100.00;100802.50;5110222;28;20161;-75
2021/11/30 07:26:08;;;;;;;14.18;3.45;;;;;;;8.39;100.00;100818.16;5109447;28;20122;-75
2021/11/30 07:28:42;;;;;;;15.10;3.60;;;;;;;8.36;100.00;100815.63;5111431;28;20034;-74
2021/11/30 07:31:11;;;;;;;17.15;3.33;;;;;;;8.34;100.00;100809.56;5109056;28;20053;-73
2021/11/30 07:33:41;;;;;;;12.05;3.22;;;;;;;8.33;100.00;100815.69;5111476;28;20023;-74
2021/11/30 07:36:09;;;;;;;19.33;3.22;;;;;;;8.31;100.00;100824.44;5111684;28;20027;-74
2021/11/30 07:38:34;;;;;;;16.48;3.58;;;;;;;8.31;100.00;100830.56;5111004;27;20034;-74
2021/11/30 07:41:00;;;;;;;17.70;3.58;;;;;;;8.30;100.00;100823.59;5109606;28;20369;-74
2021/11/30 07:43:25;;;;;;;19.90;4.05;;;;;;;8.31;100.00;100817.50;5111786;28;20405;-74
2021/11/30 07:45:51;;;;;;;19.15;3.28;;;;;;;8.34;100.00;100820.00;5110479;28;20490;-73
2021/11/30 07:48:17;;;;;;;14.77;3.55;;;;;;;8.36;100.00;100815.63;5110763;28;20426;-74
2021/11/30 07:50:44;;;;;;;15.95;3.70;;;;;;;8.39;100.00;100820.75;5111826;27;20039;-74
2021/11/30 07:53:09;;;;;;;18.90;3.60;;;;;;;8.43;100.00;100818.94;5107944;28;20039;-74
2021/11/30 07:55:36;;;;;;;16.80;4.40;;;;;;;8.40;100.00;100826.88;5111466;28;20080;-73
2021/11/30 07:58:02;;;;;;;13.10;3.30;;;;;;;8.40;100.00;100829.47;5109704;28;20097;-73
2021/11/30 08:00:27;;;;;;;11.57;3.50;;;;;;;8.44;100.00;100831.09;5091977;28;20118;-74
2021/11/30 08:02:52;;;;;;;22.10;4.72;;;;;;;8.44;100.00;100823.28;5111285;28;20024;-73
2021/11/30 08:05:18;;;;;;;14.88;4.35;;;;;;;8.46;100.00;100824.13;5108302;28;20036;-73
2021/11/30 08:07:43;;;;;;;14.23;3.78;;;;;;;8.48;100.00;100830.16;5109436;28;20629;-74
2021/11/30 08:10:13;;;;;;;19.05;4.30;;;;;;;8.47;100.00;100825.84;5109635;28;20028;-73
2021/11/30 08:12:39;;;;;;;17.17;3.90;;;;;;;8.47;100.00;100836.31;5110168;28;20054;-73
2021/11/30 08:15:05;;;;;;;15.07;4.00;;;;;;;8.48;100.00;100835.38;5109912;28;20016;-74
2021/11/30 08:17:30;;;;;;;14.02;3.90;;;;;;;8.50;100.00;100832.75;5110309;28;20486;-75
2021/11/30 08:19:56;;;;;;;19.13;4.28;;;;;;;8.51;100.00;100835.34;5110224;28;20020;-74
2021/11/30 08:22:21;;;;;;;18.73;3.78;;;;;;;8.52;100.00;100831.81;5109854;28;20028;-74
2021/11/30 08:24:46;;;;;;;14.80;3.67;;;;;;;8.55;100.00;100841.34;5110312;28;20374;-74
2021/11/30 08:27:12;;;;;;;18.50;3.75;;;;;;;8.56;100.00;100837.84;5109805;27;20479;-75
2021/11/30 08:29:40;;;;;;;14.00;3.33;;;;;;;8.58;100.00;100830.81;5109801;28;20102;-75
2021/11/30 08:32:08;;;;;;;12.70;3.10;;;;;;;8.58;100.00;100817.72;5109335;28;20034;-74
2021/11/30 08:34:35;;;;;;;16.48;3.25;;;;;;;8.61;100.00;100832.47;5106697;28;20928;-74
2021/11/30 08:37:00;;;;;;;17.27;3.85;;;;;;;8.64;100.00;100837.66;5109285;28;20040;-74
2021/11/30 08:39:26;;;;;;;15.85;3.38;;;;;;;8.65;100.00;100829.75;5109269;28;20489;-75
2021/11/30 08:41:51;;;;;;;16.20;3.05;;;;;;;8.66;100.00;100833.25;5109894;28;20024;-74
2021/11/30 08:44:16;;;;;;;15.65;3.45;;;;;;;8.68;100.00;100834.03;5110255;27;20492;-74
2021/11/30 08:46:42;;;;;;;19.02;3.63;;;;;;;8.71;100.00;100840.06;5109933;28;20032;-73
2021/11/30 08:49:07;;;;;;;11.93;2.72;;;;;;;8.71;100.00;100832.22;5109583;28;20043;-74
2021/11/30 08:51:32;;;;;;;16.25;3.33;;;;;;;8.75;100.00;100837.38;5104199;28;20030;-73
2021/11/30 08:53:57;;;;;;;16.30;3.35;;;;;;;8.75;100.00;100840.00;5103647;28;20032;-74
2021/11/30 08:56:23;;;;;;;15.88;3.22;;;;;;;8.77;100.00;100839.06;5109808;28;20042;-72
2021/11/30 08:58:51;;;;;;;19.73;3.83;;;;;;;8.79;100.00;100834.63;5109432;28;20049;-74
2021/11/30 09:01:18;;;;;;;17.92;3.25;;;;;;;8.81;100.00;100842.47;5097852;28;20028;-74
2021/11/30 09:03:43;;;;;;;15.30;3.90;;;;;;;8.84;100.00;100852.81;5087369;28;20028;-73
2021/11/30 09:06:08;;;;;;;16.00;3.25;;;;;;;8.87;100.00;100860.63;5109349;28;20358;-73
2021/11/30 09:08:34;;;;;;;16.23;2.85;;;;;;;8.90;100.00;100857.91;5106209;28;20051;-74
2021/11/30 09:10:59;;;;;;;11.60;3.33;;;;;;;8.88;100.00;100857.94;5097152;28;20555;-76
2021/11/30 09:13:24;;;;;;;13.10;3.40;;;;;;;8.87;100.00;100842.31;5106466;28;20381;-74
2021/11/30 09:15:50;;;;;;;16.25;3.22;;;;;;;8.90;100.00;100843.97;5105347;28;20114;-74
2021/11/30 09:18:15;;;;;;;23.38;3.50;;;;;;;8.91;100.00;100861.41;5098163;28;20077;-74
2021/11/30 09:20:41;;;;;;;13.75;2.97;;;;;;;8.93;100.00;100859.56;5106585;28;20101;-75
2021/11/30 09:23:06;;;;;;;17.15;3.65;;;;;;;8.95;100.00;100852.56;5108964;28;20031;-73
2021/11/30 09:25:31;;;;;;;15.57;3.58;;;;;;;8.96;100.00;100864.75;5109425;28;20062;-74
2021/11/30 09:27:58;;;;;;;17.45;3.97;;;;;;;9.00;100.00;100867.22;5104687;28;20503;-74
2021/11/30 09:30:25;;;;;;;15.38;4.30;;;;;;;9.07;100.00;100860.09;5105702;28;20031;-73
2021/11/30 09:32:50;;;;;;;14.05;3.95;;;;;;;9.11;100.00;100866.94;5108421;28;20468;-75
2021/11/30 09:35:18;;;;;;;13.60;3.05;;;;;;;9.13;100.00;100870.41;5109039;28;20145;-74
2021/11/30 09:37:46;;;;;;;13.85;3.35;;;;;;;9.13;100.00;100870.41;5107443;28;20066;-73
2021/11/30 09:40:14;;;;;;;18.50;3.15;;;;;;;9.13;100.00;100862.53;5108695;28;20102;-74
2021/11/30 09:42:40;;;;;;;17.92;3.40;;;;;;;9.04;100.00;100854.91;5108652;28;20032;-73
2021/11/30 09:45:09;;;;;;;21.70;4.28;;;;;;;9.00;100.00;100866.38;5109026;28;20024;-74
2021/11/30 09:47:34;;;;;;;16.38;3.88;;;;;;;8.98;100.00;100858.56;5106885;28;20138;-74
2021/11/30 09:50:00;;;;;;;22.40;3.90;;;;;;;9.02;100.00;100875.91;5108292;28;20106;-74
2021/11/30 09:52:26;;;;;;;19.20;3.70;;;;;;;9.07;100.00;100869.69;5107141;28;20027;-73
2021/11/30 09:54:52;;;;;;;21.23;4.55;;;;;;;9.10;100.00;100875.69;5108737;28;20022;-75
2021/11/30 09:57:17;;;;;;;17.95;3.75;;;;;;;9.13;100.00;100866.91;5106441;28;20050;-76
2021/11/30 09:59:46;;;;;;;18.67;4.03;;;;;;;9.12;100.00;100871.28;5108980;28;20024;-79
2021/11/30 10:02:12;;;;;;;13.45;3.63;;;;;;;9.09;100.00;100880.97;5108346;28;20106;-76
2021/11/30 10:04:38;;;;;;;17.20;3.97;;;;;;;9.08;100.00;100874.00;5106361;28;20070;-79
2021/11/30 10:07:04;;;;;;;16.63;3.72;;;;;;;9.10;100.00;100874.84;5108105;28;20047;-80
2021/11/30 10:09:29;;;;;;;17.20;3.55;;;;;;;9.13;100.00;100867.78;5109164;28;20115;-77
2021/11/30 10:12:00;;;;;;;13.88;3.30;;;;;;;9.16;100.00;100872.91;5108455;28;20016;-75
2021/11/30 10:14:35;;;;;;;16.40;3.45;;;;;;;9.15;100.00;100876.47;5107000;28;20030;-76
2021/11/30 10:17:21;;;;;;;15.38;3.55;;;;;;;9.16;100.00;100862.44;5102585;28;20039;-77
2021/11/30 10:19:57;;;;;;;15.93;2.95;;;;;;;9.18;100.00;100881.59;5097390;28;20036;-77
2021/11/30 10:22:45;;;;;;;10.63;3.20;;;;;;;9.22;100.00;100882.38;5108939;28;20031;-78
2021/11/30 10:25:17;;;;;;;16.35;3.85;;;;;;;9.26;100.00;100878.75;5107922;28;20028;-75
2021/11/30 10:27:54;;;;;;;20.17;3.47;;;;;;;9.27;100.00;100880.50;5109331;28;20028;-76
2021/11/30 10:30:28;;;;;;;17.27;3.53;;;;;;;9.24;100.00;100893.69;5113340;28;20016;-76
2021/11/30 10:32:56;;;;;;;12.23;3.40;;;;;;;9.24;100.00;100884.94;5109343;28;20023;-74
2021/11/30 10:35:24;;;;;;;10.82;3.75;;;;;;;9.21;100.00;100893.75;5110288;28;20484;-74
2021/11/30 10:37:49;;;;;;;16.83;3.20;;;;;;;9.18;100.00;100876.38;5109192;28;20028;-75
2021/11/30 10:40:18;;;;;;;14.43;3.53;;;;;;;9.15;100.00;100876.47;5112243;28;20038;-76
2021/11/30 10:42:55;;;;;;;14.70;3.63;;;;;;;9.16;100.00;100878.16;5111496;28;20032;-74
2021/11/30 10:45:27;;;;;;;12.85;3.35;;;;;;;9.15;100.00;100880.81;5111540;28;20647;-74
2021/11/30 10:47:53;;;;;;;16.65;3.75;;;;;;;9.15;100.00;100876.47;5110541;28;20038;-78
2021/11/30 10:50:25;;;;;;;20.95;3.65;;;;;;;9.13;100.00;100875.63;5107217;28;21626;-76
2021/11/30 10:52:51;;;;;;;11.88;2.97;;;;;;;9.12;100.00;100876.53;5109673;28;20081;-76
2021/11/30 10:55:18;;;;;;;15.85;3.53;;;;;;;9.10;100.00;100873.06;5109987;28;20059;-75
2021/11/30 10:57:47;;;;;;;14.77;3.15;;;;;;;9.04;100.00;100870.63;5110229;28;20032;-77
2021/11/30 11:00:19;;;;;;;13.05;3.33;;;;;;;9.01;100.00;100874.19;5111479;28;20035;-76
2021/11/30 11:03:40;;;;;;;14.43;3.38;;;;;;;9.01;100.00;100863.72;5109726;28;20451;-75
2021/11/30 11:05:43;;;;;;;15.25;3.50;;;;;;;9.02;100.00;100875.06;5097824;28;20456;-76
2021/11/30 11:08:11;;;;;;;15.20;3.83;;;;;;;9.03;100.00;100863.69;5105983;28;20382;-75
2021/11/30 11:10:58;;;;;;;14.07;3.42;;;;;;;9.03;100.00;100871.53;5109295;28;20027;-75
2021/11/30 11:13:27;;;;;;;11.63;3.30;;;;;;;9.02;100.00;100877.66;5092723;28;20020;-75
2021/11/30 11:15:56;;;;;;;16.17;3.58;;;;;;;9.00;100.00;100866.38;5110195;28;20523;-75
2021/11/30 11:18:25;;;;;;;17.83;4.18;;;;;;;9.05;100.00;100864.50;5110910;28;20464;-76
2021/11/30 11:21:08;;;;;;;15.30;3.42;;;;;;;9.08;100.00;100855.69;5097204;28;20030;-77
2021/11/30 11:23:33;;;;;;;13.80;3.42;;;;;;;9.09;100.00;100858.31;5104943;28;20030;-75
2021/11/30 11:25:59;;;;;;;15.63;3.42;;;;;;;9.06;100.00;100855.75;5107090;28;20015;-75
2021/11/30 11:28:24;;;;;;;16.40;3.30;;;;;;;9.09;100.00;100854.81;5108553;28;20373;-75
2021/11/30 11:30:51;;;;;;;16.75;3.60;;;;;;;9.06;100.00;100860.97;5108835;28;20115;-86
2021/11/30 11:33:17;;;;;;;22.80;3.90;;;;;;;9.07;100.00;100859.22;5105077;28;20023;-79